Time;durP1;ratioP1;P1;durP2;ratioP2;P2;SDS_P1;SDS_P2;PMS_P1;PMS_P2;Temp;Humidity;BMP_temperature;BMP_pressure;BME280_temperature;BME280_humidity;BME280_pressure;Samples;Min_cycle;Max_cycle;Signal;HPM_P1;HPM_P2
2023/08/21 08:48:23;;;;;;;14.00;5.05;;;;;;;21.37;100.00;102192.13;5058909;28;20434;-68
2023/08/21 08:50:50;;;;;;;9.73;4.03;;;;;;;21.42;100.00;102192.16;5049345;28;20030;-69
2023/08/21 08:53:17;;;;;;;9.98;2.70;;;;;;;21.45;95.60;102193.53;5049963;28;20487;-68
2023/08/21 08:55:42;;;;;;;8.43;2.97;;;;;;;21.46;86.10;102197.97;5049924;28;20048;-69
2023/08/21 08:58:08;;;;;;;9.18;3.05;;;;;;;21.56;99.29;102195.31;5047010;28;20452;-68
2023/08/21 09:00:33;;;;;;;8.05;2.45;;;;;;;21.62;94.25;102198.94;5047267;28;20021;-68
2023/08/21 09:02:58;;;;;;;7.78;2.67;;;;;;;21.65;89.25;102197.53;5049722;28;20025;-69
2023/08/21 09:05:24;;;;;;;9.80;2.97;;;;;;;21.67;88.74;102198.94;5049492;28;20021;-69
2023/08/21 09:08:08;;;;;;;9.10;2.70;;;;;;;21.76;91.08;102196.50;5048828;28;20124;-67
2023/08/21 09:10:35;;;;;;;8.52;3.05;;;;;;;21.82;88.10;102178.09;5036477;28;20037;-69
2023/08/21 09:13:01;;;;;;;7.05;2.83;;;;;;;21.85;91.31;102196.84;5046533;28;20025;-69
2023/08/21 09:15:30;;;;;;;9.38;2.75;;;;;;;21.86;88.73;102192.97;5049043;28;20022;-68
2023/08/21 09:17:56;;;;;;;8.20;2.63;;;;;;;21.94;89.67;102187.75;5048167;28;20064;-68
2023/08/21 09:20:21;;;;;;;6.80;2.40;;;;;;;21.93;87.25;102186.09;5045519;28;20037;-70
2023/08/21 09:22:55;;;;;;;9.20;2.65;;;;;;;21.92;83.88;102181.72;5049446;28;20025;-70
2023/08/21 09:25:20;;;;;;;10.52;3.10;;;;;;;21.99;82.76;102186.97;5029227;28;20109;-69
2023/08/21 09:27:45;;;;;;;6.05;2.50;;;;;;;22.03;85.75;102193.59;5028040;28;20030;-69
2023/08/21 09:30:15;;;;;;;11.77;3.10;;;;;;;22.11;85.64;102190.31;5027237;28;20030;-68
2023/08/21 09:33:00;;;;;;;7.15;2.70;;;;;;;22.15;89.68;102190.59;5027318;28;20034;-69
2023/08/21 09:35:26;;;;;;;10.48;2.55;;;;;;;22.24;81.87;102186.22;5029033;28;20037;-68
2023/08/21 09:37:55;;;;;;;9.00;2.67;;;;;;;22.22;82.66;102182.06;5029227;28;20026;-69
2023/08/21 09:40:23;;;;;;;7.38;2.90;;;;;;;22.28;85.03;102179.06;5026386;28;20025;-69
2023/08/21 09:42:56;;;;;;;8.35;2.17;;;;;;;22.37;87.59;102187.66;5029149;28;20022;-69
2023/08/21 09:45:27;;;;;;;10.18;2.33;;;;;;;22.38;84.26;102178.28;5028966;28;20029;-69
2023/08/21 09:47:53;;;;;;;6.50;2.05;;;;;;;22.41;80.10;102179.69;5029138;28;20049;-69
2023/08/21 09:50:19;;;;;;;11.93;3.08;;;;;;;22.38;75.76;102180.22;5026949;28;20453;-69
2023/08/21 09:52:46;;;;;;;8.48;2.13;;;;;;;22.47;78.79;102187.66;5028756;28;20449;-72
2023/08/21 09:55:14;;;;;;;5.28;1.92;;;;;;;22.53;75.13;102180.25;5033499;28;20029;-69
2023/08/21 09:57:41;;;;;;;5.80;2.03;;;;;;;22.50;73.37;102177.22;5024597;28;20094;-72
2023/08/21 10:00:15;;;;;;;8.80;2.00;;;;;;;22.70;79.56;102181.91;5011318;28;20038;-70
2023/08/21 10:02:45;;;;;;;10.02;2.30;;;;;;;22.69;77.11;102186.63;5012015;28;20018;-70
2023/08/21 10:05:12;;;;;;;12.88;3.00;;;;;;;22.64;72.82;102181.06;5015503;28;20442;-70
2023/08/21 10:07:38;;;;;;;19.88;2.85;;;;;;;22.67;78.11;102186.03;5013724;28;20072;-69
2023/08/21 10:10:05;;;;;;;9.48;2.28;;;;;;;22.74;75.20;102183.84;5014570;28;20060;-69
2023/08/21 10:12:30;;;;;;;9.00;2.60;;;;;;;22.87;77.55;102167.84;5015096;28;20026;-69
2023/08/21 10:14:55;;;;;;;6.72;2.05;;;;;;;22.92;76.69;102165.91;5011908;28;20018;-69
2023/08/21 10:17:21;;;;;;;8.13;2.10;;;;;;;22.92;77.04;102157.63;5014380;28;20041;-69
2023/08/21 10:19:52;;;;;;;6.75;2.00;;;;;;;23.01;76.78;102163.44;5014408;28;20029;-69
2023/08/21 10:22:44;;;;;;;7.50;2.25;;;;;;;22.95;76.79;102164.53;5014938;28;20026;-70
2023/08/21 10:25:16;;;;;;;19.63;2.30;;;;;;;22.97;68.98;102167.84;5012747;28;20030;-69
2023/08/21 10:27:42;;;;;;;7.25;1.80;;;;;;;23.00;68.24;102159.81;5014483;28;20034;-69
2023/08/21 10:30:34;;;;;;;7.07;1.85;;;;;;;23.11;72.94;102166.19;5014703;28;20022;-69
2023/08/21 10:33:00;;;;;;;8.07;2.30;;;;;;;23.04;72.15;102165.63;5013500;28;20050;-69
2023/08/21 10:35:29;;;;;;;5.60;1.52;;;;;;;23.10;57.83;102161.78;5009134;28;20037;-69
2023/08/21 10:38:17;;;;;;;6.88;1.60;;;;;;;23.20;62.96;102165.63;5010044;28;20030;-69
2023/08/21 10:41:08;;;;;;;4.97;1.67;;;;;;;23.28;64.83;102159.53;5011722;28;20449;-70
2023/08/21 10:43:46;;;;;;;6.33;1.80;;;;;;;23.32;64.13;102152.34;5014327;28;20076;-68
2023/08/21 10:46:12;;;;;;;4.75;1.80;;;;;;;23.49;66.29;102154.78;5012305;28;20640;-70
2023/08/21 10:48:39;;;;;;;6.35;2.00;;;;;;;23.56;65.43;102160.84;5014318;28;20018;-69
2023/08/21 10:51:07;;;;;;;6.47;1.88;;;;;;;23.59;65.31;102160.28;5014456;28;20088;-70
2023/08/21 10:53:33;;;;;;;6.90;2.03;;;;;;;23.64;60.65;102168.56;5014087;28;20030;-69
2023/08/21 10:56:06;;;;;;;5.05;1.88;;;;;;;23.68;61.14;102166.06;5012027;28;20456;-69
2023/08/21 10:58:40;;;;;;;6.47;2.03;;;;;;;23.68;62.31;102168.81;5012732;28;20112;-71
2023/08/21 11:01:09;;;;;;;4.90;1.77;;;;;;;23.72;61.04;102172.69;5009702;28;20022;-69
2023/08/21 11:03:43;;;;;;;6.03;2.30;;;;;;;23.81;61.57;102171.00;5012268;28;20021;-69
2023/08/21 11:06:10;;;;;;;7.38;2.15;;;;;;;23.83;63.41;102165.19;5012160;28;20053;-70
2023/08/21 11:08:36;;;;;;;8.23;1.95;;;;;;;23.97;62.26;102163.47;5011260;28;20108;-72
2023/08/21 11:11:04;;;;;;;7.68;1.73;;;;;;;23.85;60.44;102165.75;5011237;28;20034;-70
2023/08/21 11:13:29;;;;;;;6.50;2.30;;;;;;;23.81;61.13;102164.59;5013308;28;20021;-70
2023/08/21 11:16:02;;;;;;;6.72;2.00;;;;;;;23.76;61.89;102157.16;5005228;28;20454;-71
2023/08/21 11:18:36;;;;;;;9.05;2.40;;;;;;;23.98;62.19;102156.00;4994141;28;20485;-70
2023/08/21 11:21:05;;;;;;;7.13;2.13;;;;;;;24.01;59.37;102149.91;4992839;28;20366;-71
2023/08/21 11:23:37;;;;;;;5.50;1.80;;;;;;;24.12;60.97;102151.50;5000564;28;20453;-72
2023/08/21 11:26:04;;;;;;;6.13;1.90;;;;;;;24.21;61.46;102147.00;5010177;28;20054;-71
2023/08/21 11:28:30;;;;;;;9.18;2.35;;;;;;;24.33;58.89;102154.16;5013426;28;20025;-69
2023/08/21 11:30:56;;;;;;;8.27;2.08;;;;;;;24.40;55.84;102149.13;5013966;28;20061;-70
2023/08/21 11:33:22;;;;;;;8.43;2.00;;;;;;;24.46;56.85;102153.50;5013609;28;20042;-69
2023/08/21 11:35:49;;;;;;;5.32;1.63;;;;;;;24.53;56.46;102159.53;5012881;28;20340;-71
2023/08/21 11:38:19;;;;;;;4.97;1.75;;;;;;;24.46;58.37;102159.03;5013038;28;20105;-71
2023/08/21 11:40:58;;;;;;;7.53;1.77;;;;;;;24.32;59.28;102158.00;5009831;28;20038;-72
2023/08/21 11:43:34;;;;;;;4.90;1.70;;;;;;;24.18;58.27;102153.13;5013791;28;20028;-70
2023/08/21 11:46:03;;;;;;;7.13;2.55;;;;;;;24.01;57.44;102153.50;5009248;28;20025;-70
2023/08/21 11:48:30;;;;;;;7.32;1.80;;;;;;;23.90;58.68;102149.16;5010898;28;20028;-70
2023/08/21 11:50:55;;;;;;;8.65;1.83;;;;;;;23.86;58.81;102146.09;5014020;28;20149;-69
2023/08/21 11:53:40;;;;;;;6.35;1.70;;;;;;;23.92;59.12;102143.34;5013631;28;20064;-69
2023/08/21 11:56:11;;;;;;;5.20;1.90;;;;;;;24.07;60.24;102140.47;5001602;28;20085;-69
2023/08/21 11:58:40;;;;;;;4.72;1.60;;;;;;;24.31;58.59;102145.31;5011792;28;20059;-71
2023/08/21 12:01:07;;;;;;;8.18;2.28;;;;;;;24.40;56.22;102138.06;5010563;28;20019;-75
2023/08/21 12:03:39;;;;;;;6.22;1.73;;;;;;;24.40;57.39;102149.94;5007730;28;20034;-72
2023/08/21 12:06:09;;;;;;;5.03;2.10;;;;;;;24.42;55.29;102141.34;4993433;28;20030;-75
2023/08/21 12:08:35;;;;;;;5.63;1.90;;;;;;;24.39;56.18;102142.75;4992238;28;20019;-74
2023/08/21 12:11:01;;;;;;;4.35;1.70;;;;;;;24.30;55.66;102133.41;4998465;28;20033;-73
2023/08/21 12:13:26;;;;;;;5.53;1.80;;;;;;;24.44;55.00;102139.13;5013336;28;20358;-75
2023/08/21 12:15:52;;;;;;;11.02;2.10;;;;;;;24.64;56.11;102131.78;5007668;28;20024;-75
2023/08/21 12:18:17;;;;;;;10.68;2.60;;;;;;;24.83;56.13;102134.69;5013130;28;20100;-71
2023/08/21 12:20:42;;;;;;;7.00;2.20;;;;;;;24.97;53.85;102137.59;5008105;28;20105;-74
2023/08/21 12:23:08;;;;;;;5.00;1.73;;;;;;;25.05;53.14;102125.91;5008362;28;20289;-72
2023/08/21 12:25:33;;;;;;;7.13;2.33;;;;;;;25.24;52.08;102118.50;5012956;28;20026;-71
2023/08/21 12:27:58;;;;;;;3.78;1.70;;;;;;;25.33;52.67;102120.66;5013087;28;20048;-71
2023/08/21 12:30:25;;;;;;;7.55;1.88;;;;;;;25.40;53.13;102121.13;5011555;28;20036;-72
2023/08/21 12:32:50;;;;;;;10.23;2.28;;;;;;;25.43;52.91;102126.06;5011201;28;20445;-72
2023/08/21 12:35:15;;;;;;;7.43;2.17;;;;;;;25.60;52.07;102120.84;5010920;28;20034;-72
2023/08/21 12:37:41;;;;;;;5.90;1.50;;;;;;;25.52;53.34;102124.28;5011449;28;20061;-71
2023/08/21 12:40:07;;;;;;;7.43;1.95;;;;;;;25.37;52.72;102116.97;5012964;28;20456;-72
2023/08/21 12:42:32;;;;;;;5.97;2.00;;;;;;;25.10;53.97;102117.53;5027209;28;20059;-71
2023/08/21 12:44:58;;;;;;;4.13;1.70;;;;;;;25.00;53.65;102123.16;5007736;28;20396;-71
2023/08/21 12:47:23;;;;;;;3.88;1.48;;;;;;;25.20;54.08;102111.03;5012822;28;20531;-71
2023/08/21 12:49:48;;;;;;;5.05;2.00;;;;;;;25.20;52.40;102106.34;5012370;28;20053;-73
2023/08/21 12:52:14;;;;;;;3.88;1.52;;;;;;;25.20;51.58;102109.13;5012569;28;20412;-71
2023/08/21 12:54:39;;;;;;;8.38;1.90;;;;;;;25.45;54.37;102109.97;5009638;28;20076;-72
2023/08/21 12:57:05;;;;;;;8.40;2.10;;;;;;;25.61;52.92;102110.59;5001633;28;20358;-72
2023/08/21 12:59:30;;;;;;;8.32;1.80;;;;;;;25.73;50.07;102113.78;5013932;28;20049;-72
2023/08/21 13:01:56;;;;;;;5.18;1.88;;;;;;;25.79;49.38;102114.53;5009419;28;20041;-71
2023/08/21 13:04:21;;;;;;;7.53;1.58;;;;;;;25.88;49.40;102103.56;5009038;28;20026;-71
2023/08/21 13:06:46;;;;;;;5.30;1.60;;;;;;;25.96;49.00;102100.97;5011204;28;20029;-71
2023/08/21 13:09:12;;;;;;;6.03;1.40;;;;;;;26.21;49.80;102107.31;5011658;28;20034;-74
2023/08/21 13:11:37;;;;;;;7.60;1.75;;;;;;;26.21;48.53;102098.97;5010721;28;20410;-73
2023/08/21 13:14:03;;;;;;;4.63;1.77;;;;;;;26.11;48.22;102101.91;5011312;28;20053;-75
2023/08/21 13:16:28;;;;;;;4.40;1.67;;;;;;;26.18;47.64;102099.59;5012189;28;20084;-74
2023/08/21 13:18:53;;;;;;;4.60;1.40;;;;;;;26.23;48.16;102099.50;5012062;28;20610;-72
2023/08/21 13:21:19;;;;;;;8.63;2.05;;;;;;;26.30;47.99;102111.03;5012252;28;20522;-72
2023/08/21 13:23:44;;;;;;;4.88;1.55;;;;;;;26.11;48.94;102111.03;5012356;28;20424;-72
2023/08/21 13:26:09;;;;;;;4.93;1.65;;;;;;;25.85;47.41;102105.03;5012152;28;20113;-75
2023/08/21 13:28:35;;;;;;;4.70;1.35;;;;;;;25.94;49.50;102107.97;5011268;28;20048;-72
2023/08/21 13:31:00;;;;;;;3.85;1.40;;;;;;;26.06;48.24;102110.28;5010057;28;20152;-72
2023/08/21 13:33:25;;;;;;;6.47;1.55;;;;;;;26.26;47.07;102109.16;5013464;28;20030;-71
2023/08/21 13:35:51;;;;;;;5.43;1.60;;;;;;;26.27;46.81;102105.25;5016320;28;20068;-73
2023/08/21 13:38:16;;;;;;;4.53;1.80;;;;;;;26.37;46.56;102116.19;5014796;28;20145;-72
2023/08/21 13:40:42;;;;;;;7.82;2.00;;;;;;;26.49;47.23;102096.31;5015033;28;20022;-72
2023/08/21 13:43:09;;;;;;;3.88;1.42;;;;;;;26.49;45.85;102104.63;5016054;28;20433;-72
2023/08/21 13:45:35;;;;;;;3.78;1.60;;;;;;;26.69;46.36;102100.69;5014745;28;20400;-71
2023/08/21 13:48:00;;;;;;;8.07;1.48;;;;;;;26.81;45.83;102097.44;5015819;28;20088;-73
2023/08/21 13:50:26;;;;;;;5.65;1.60;;;;;;;26.85;46.03;102090.97;5015253;28;20029;-72
2023/08/21 13:52:51;;;;;;;3.78;1.45;;;;;;;26.68;45.99;102099.88;5014934;28;20469;-75
2023/08/21 13:55:17;;;;;;;5.53;1.70;;;;;;;26.52;46.31;102095.69;5015846;28;20361;-71
2023/08/21 13:57:42;;;;;;;8.63;1.70;;;;;;;26.70;47.74;102092.06;5015498;28;20022;-71
2023/08/21 14:00:13;;;;;;;6.00;1.67;;;;;;;26.70;45.11;102091.25;5015732;28;20075;-72
2023/08/21 14:02:42;;;;;;;7.25;2.05;;;;;;;26.61;44.86;102088.31;5028687;28;20476;-74
2023/08/21 14:05:08;;;;;;;5.93;1.60;;;;;;;26.42;46.88;102084.75;5035517;28;20032;-71
2023/08/21 14:07:34;;;;;;;8.63;1.85;;;;;;;26.39;46.77;102080.66;5012777;28;20026;-71
2023/08/21 14:10:00;;;;;;;6.88;1.70;;;;;;;26.62;46.82;102078.88;5015642;28;20034;-72
2023/08/21 14:12:29;;;;;;;4.90;1.40;;;;;;;26.90;46.48;102084.50;5014743;28;20495;-72
2023/08/21 14:14:54;;;;;;;5.18;1.90;;;;;;;26.93;45.53;102078.31;5013084;28;20026;-73
2023/08/21 14:17:19;;;;;;;4.30;1.83;;;;;;;26.94;46.03;102074.41;5014797;28;20414;-72
2023/08/21 14:19:45;;;;;;;9.15;1.80;;;;;;;26.93;44.46;102078.31;5015252;28;20394;-72
2023/08/21 14:22:10;;;;;;;5.30;1.30;;;;;;;27.09;43.46;102072.50;5013316;28;20052;-71
2023/08/21 14:24:35;;;;;;;5.55;1.40;;;;;;;27.29;43.90;102069.28;5013482;28;20453;-72
2023/08/21 14:27:01;;;;;;;10.18;1.75;;;;;;;27.58;43.75;102062.59;5014961;28;20026;-74
2023/08/21 14:29:26;;;;;;;3.38;0.88;;;;;;;27.68;41.57;102064.34;5013895;28;20022;-73
2023/08/21 14:31:53;;;;;;;3.97;1.17;;;;;;;27.92;40.91;102069.63;5009581;28;20037;-72
2023/08/21 14:34:20;;;;;;;3.92;1.25;;;;;;;28.04;39.94;102057.97;5014470;28;20022;-71
2023/08/21 14:36:45;;;;;;;6.65;1.30;;;;;;;28.51;39.42;102057.63;5014614;28;20053;-71
2023/08/21 14:39:10;;;;;;;23.95;2.47;;;;;;;28.85;38.90;102051.44;5014806;28;20079;-71
2023/08/21 14:41:43;;;;;;;3.35;1.23;;;;;;;28.87;35.20;102053.94;5015027;28;20026;-70
2023/08/21 14:44:09;;;;;;;7.53;1.40;;;;;;;29.07;36.92;102050.53;5014906;28;20091;-70
2023/08/21 14:46:34;;;;;;;2.97;1.10;;;;;;;28.63;38.33;102058.72;5012749;28;20037;-71
2023/08/21 14:48:59;;;;;;;3.03;1.05;;;;;;;28.10;37.76;102051.16;5013483;28;20437;-69
2023/08/21 14:51:25;;;;;;;3.45;1.00;;;;;;;28.45;39.54;102035.47;5014661;28;20022;-72
2023/08/21 14:53:50;;;;;;;4.03;1.17;;;;;;;28.91;38.18;102038.19;5018729;28;20025;-71
2023/08/21 14:56:16;;;;;;;4.22;1.33;;;;;;;29.34;36.02;102034.75;4999633;28;20030;-72
2023/08/21 14:58:43;;;;;;;3.28;1.23;;;;;;;29.69;35.20;102032.81;4995051;28;20026;-75
2023/08/21 15:01:10;;;;;;;4.18;1.27;;;;;;;30.01;37.31;102029.88;4992869;28;20351;-74
2023/08/21 15:03:36;;;;;;;3.08;1.02;;;;;;;30.26;33.80;102028.22;5001935;28;20025;-74
2023/08/21 15:06:01;;;;;;;2.47;1.23;;;;;;;30.53;35.97;102029.00;5013715;28;20521;-72
2023/08/21 15:08:27;;;;;;;5.80;1.50;;;;;;;30.75;34.23;102027.94;5014345;28;20028;-73
2023/08/21 15:10:53;;;;;;;6.57;1.20;;;;;;;30.71;33.70;102027.78;5011964;28;20030;-72
2023/08/21 15:13:18;;;;;;;2.78;1.05;;;;;;;30.84;34.27;102011.94;5013617;28;20076;-71
2023/08/21 15:15:43;;;;;;;4.43;1.10;;;;;;;30.84;33.37;102011.94;5011887;28;20029;-72
2023/08/21 15:18:09;;;;;;;3.15;0.98;;;;;;;30.78;32.80;102023.66;5015050;28;20485;-73
2023/08/21 15:20:34;;;;;;;2.60;1.10;;;;;;;30.53;32.49;102021.44;5013260;28;20128;-71
2023/08/21 15:22:59;;;;;;;3.38;1.02;;;;;;;30.44;32.67;102014.22;5012163;28;20283;-78
2023/08/21 15:25:25;;;;;;;3.05;1.02;;;;;;;30.66;34.59;102010.38;5012470;28;20038;-70
2023/08/21 15:27:50;;;;;;;2.78;1.00;;;;;;;30.86;32.05;102004.06;5013430;28;20040;-75
2023/08/21 15:30:17;;;;;;;3.30;1.23;;;;;;;30.77;31.87;102003.28;5011993;28;20037;-73
2023/08/21 15:32:44;;;;;;;2.33;0.73;;;;;;;30.52;32.64;101999.44;5017660;28;20053;-72
2023/08/21 15:35:10;;;;;;;2.42;0.65;;;;;;;30.54;31.80;101999.91;5016300;28;20034;-72
2023/08/21 15:37:35;;;;;;;2.55;0.80;;;;;;;30.65;32.07;102003.16;5013024;28;20040;-74
2023/08/21 15:40:00;;;;;;;4.03;1.17;;;;;;;30.68;31.87;102002.47;5013786;28;20029;-71
2023/08/21 15:42:26;;;;;;;4.23;1.10;;;;;;;30.72;33.42;101995.06;5013013;28;20037;-72
2023/08/21 15:44:51;;;;;;;3.30;1.00;;;;;;;30.51;32.01;101993.03;5011745;28;20261;-71
2023/08/21 15:47:16;;;;;;;3.90;1.15;;;;;;;30.65;32.45;101986.38;5005029;28;20050;-71
2023/08/21 15:49:42;;;;;;;2.42;0.77;;;;;;;30.78;32.42;101988.13;5008087;28;20332;-73
2023/08/21 15:52:07;;;;;;;2.13;0.80;;;;;;;31.15;32.47;101998.81;5012519;28;20069;-72
2023/08/21 15:54:33;;;;;;;3.55;1.20;;;;;;;31.21;32.69;101980.72;5008808;28;20513;-72
2023/08/21 15:57:00;;;;;;;2.90;0.85;;;;;;;31.32;31.72;101984.72;5011234;28;20026;-72
2023/08/21 15:59:26;;;;;;;2.42;0.70;;;;;;;31.12;32.43;101986.34;5012792;28;20022;-71
2023/08/21 16:01:52;;;;;;;1.42;0.60;;;;;;;30.83;32.63;101979.59;5008139;28;20034;-71
